Time;durP1;ratioP1;P1;durP2;ratioP2;P2;SDS_P1;SDS_P2;PMS_P1;PMS_P2;Temp;Humidity;BMP_temperature;BMP_pressure;BME280_temperature;BME280_humidity;BME280_pressure;Samples;Min_cycle;Max_cycle;Signal;HPM_P1;HPM_P2
2023/12/07 00:00:20;;;;;;;31.33;16.70;;;;;;;1.74;100.00;100706.16;10392723;28;20128;-78
2023/12/07 00:05:23;;;;;;;44.50;24.55;;;;;;;1.36;100.00;100704.97;10401964;28;20051;-79
2023/12/07 00:10:27;;;;;;;49.85;24.50;;;;;;;2.12;100.00;100704.63;10386227;28;20046;-77
2023/12/07 00:15:31;;;;;;;42.25;24.13;;;;;;;2.14;100.00;100699.28;10404563;28;20046;-78
2023/12/07 00:20:34;;;;;;;40.47;23.05;;;;;;;2.15;100.00;100706.28;10410037;28;20084;-77
2023/12/07 00:25:39;;;;;;;50.75;24.25;;;;;;;2.08;100.00;100702.16;10423257;28;20105;-77
2023/12/07 00:30:42;;;;;;;45.90;23.88;;;;;;;2.11;100.00;100713.50;10420342;28;20049;-78
2023/12/07 00:35:45;;;;;;;43.38;22.67;;;;;;;2.12;100.00;100723.19;10426830;28;20049;-78
2023/12/07 00:40:50;;;;;;;46.22;25.60;;;;;;;1.97;100.00;100722.91;10416675;28;20044;-79
2023/12/07 00:45:53;;;;;;;43.85;24.40;;;;;;;1.65;100.00;100727.72;10410873;28;20046;-78
2023/12/07 00:50:57;;;;;;;41.05;21.98;;;;;;;1.57;100.00;100748.31;10389222;28;20050;-78
2023/12/07 00:56:03;;;;;;;39.60;19.50;;;;;;;1.85;100.00;100751.63;10401893;28;20076;-79
2023/12/07 01:01:07;;;;;;;44.55;21.90;;;;;;;1.78;100.00;100743.97;10409901;28;20489;-78
2023/12/07 01:06:11;;;;;;;38.80;19.45;;;;;;;1.71;100.00;100752.16;10414441;28;20042;-77
2023/12/07 01:11:16;;;;;;;40.30;22.90;;;;;;;1.82;100.00;100746.44;10397096;28;20037;-79
2023/12/07 01:16:19;;;;;;;37.17;21.42;;;;;;;1.82;100.00;100759.69;10423521;28;20109;-78
2023/12/07 01:21:22;;;;;;;41.72;20.63;;;;;;;1.61;100.00;100750.78;10410197;28;20056;-79
2023/12/07 01:26:26;;;;;;;40.67;22.52;;;;;;;1.57;100.00;100756.28;10413820;28;20046;-79
2023/12/07 01:31:30;;;;;;;42.63;20.85;;;;;;;1.82;100.00;100765.00;10392112;28;20045;-79
2023/12/07 01:36:33;;;;;;;35.97;18.50;;;;;;;1.65;100.00;100760.34;10399821;28;20056;-79
2023/12/07 01:41:37;;;;;;;39.63;20.58;;;;;;;1.89;100.00;100768.25;10425973;28;20057;-78
2023/12/07 01:46:40;;;;;;;42.30;22.63;;;;;;;1.77;100.00;100769.59;10413264;28;20087;-77
2023/12/07 01:51:44;;;;;;;51.15;25.13;;;;;;;1.83;100.00;100774.66;10412295;28;20046;-78
2023/12/07 01:56:49;;;;;;;44.20;23.27;;;;;;;1.34;100.00;100767.69;10423349;28;20414;-79
2023/12/07 02:01:52;;;;;;;49.05;23.67;;;;;;;1.47;100.00;100774.28;10416144;28;20046;-79
2023/12/07 02:06:58;;;;;;;49.95;24.65;;;;;;;1.64;100.00;100774.50;10422857;28;20046;-79
2023/12/07 02:12:02;;;;;;;48.50;25.25;;;;;;;1.85;100.00;100783.41;10406975;28;20050;-78
2023/12/07 02:17:15;;;;;;;53.15;26.42;;;;;;;1.68;100.00;100791.16;10411262;28;20049;-78
2023/12/07 02:22:28;;;;;;;60.08;29.05;;;;;;;1.61;100.00;100782.56;10411669;28;20034;-77
2023/12/07 02:27:40;;;;;;;56.47;26.88;;;;;;;1.82;100.00;100782.69;10424726;28;20142;-78
2023/12/07 02:32:46;;;;;;;42.92;21.98;;;;;;;1.60;100.00;100788.78;10408375;28;20049;-79
2023/12/07 02:37:50;;;;;;;52.67;26.08;;;;;;;1.69;100.00;100792.88;10434376;28;20065;-79
2023/12/07 02:42:56;;;;;;;52.13;26.75;;;;;;;1.60;100.00;100794.09;10399384;28;20052;-78
2023/12/07 02:48:00;;;;;;;56.67;29.92;;;;;;;1.65;100.00;100791.28;10415540;28;20133;-78
2023/12/07 02:53:04;;;;;;;52.78;25.88;;;;;;;1.80;100.00;100793.31;10395723;28;20042;-79
2023/12/07 02:58:08;;;;;;;53.67;25.42;;;;;;;1.56;100.00;100795.09;10412848;28;20029;-80
2023/12/07 03:03:12;;;;;;;51.72;25.08;;;;;;;1.34;100.00;100800.31;10398761;28;20053;-78
2023/12/07 03:08:15;;;;;;;51.33;26.10;;;;;;;1.71;100.00;100805.13;10426701;28;20045;-80
2023/12/07 03:13:19;;;;;;;50.97;26.77;;;;;;;1.53;100.00;100810.25;10398479;28;20060;-78
2023/12/07 03:18:22;;;;;;;49.00;26.40;;;;;;;1.46;100.00;100810.47;10398152;28;20049;-80
2023/12/07 03:23:25;;;;;;;53.85;25.80;;;;;;;1.55;100.00;100811.06;10405464;28;20665;-80
2023/12/07 03:28:30;;;;;;;56.03;26.63;;;;;;;1.28;100.00;100814.63;10410847;28;20037;-78
2023/12/07 03:33:33;;;;;;;54.60;26.48;;;;;;;1.16;100.00;100814.22;10425162;28;20053;-79
2023/12/07 03:38:36;;;;;;;49.03;24.55;;;;;;;1.38;100.00;100812.53;10416814;28;20652;-80
2023/12/07 03:43:40;;;;;;;53.03;26.58;;;;;;;1.60;100.00;100809.97;10434921;28;20493;-79
2023/12/07 03:48:44;;;;;;;49.53;24.92;;;;;;;1.63;100.00;100806.34;10392985;28;20049;-77
2023/12/07 03:53:47;;;;;;;53.42;28.40;;;;;;;1.68;99.95;100817.63;10388710;28;20469;-79
2023/12/07 03:58:55;;;;;;;49.47;24.92;;;;;;;1.54;100.00;100819.91;10411352;28;20049;-79
2023/12/07 04:03:58;;;;;;;52.65;25.55;;;;;;;1.38;100.00;100816.97;10416399;28;20101;-79
2023/12/07 04:09:02;;;;;;;46.85;24.13;;;;;;;1.41;100.00;100824.81;10403277;28;20107;-78
2023/12/07 04:14:07;;;;;;;47.08;23.10;;;;;;;1.37;100.00;100820.53;10386622;28;20077;-78
2023/12/07 04:19:10;;;;;;;44.63;24.08;;;;;;;1.39;100.00;100819.56;10403541;28;20077;-79
2023/12/07 04:24:13;;;;;;;45.78;22.75;;;;;;;1.43;99.59;100826.47;10439761;28;20037;-78
2023/12/07 04:29:17;;;;;;;41.47;20.73;;;;;;;1.03;100.00;100824.38;10419859;28;20053;-78
2023/12/07 04:34:20;;;;;;;45.42;24.58;;;;;;;1.44;99.90;100820.25;10414223;28;20056;-78
2023/12/07 04:39:23;;;;;;;52.22;26.10;;;;;;;1.59;98.74;100818.84;10422083;28;20085;-78
2023/12/07 04:44:28;;;;;;;49.40;25.42;;;;;;;1.56;99.18;100829.53;10392828;28;20088;-78
2023/12/07 04:49:32;;;;;;;54.38;28.83;;;;;;;1.63;98.21;100825.75;10420526;28;20132;-78
2023/12/07 04:54:35;;;;;;;52.55;28.08;;;;;;;1.63;98.74;100820.44;10407287;28;20057;-78
2023/12/07 04:59:39;;;;;;;54.97;27.42;;;;;;;1.55;98.44;100826.94;10420165;28;20041;-78
2023/12/07 05:04:43;;;;;;;56.13;28.20;;;;;;;1.57;98.47;100828.63;10435157;28;20136;-78
2023/12/07 05:09:46;;;;;;;57.08;28.90;;;;;;;1.54;98.47;100827.84;10427299;28;20041;-78
2023/12/07 05:14:51;;;;;;;49.30;23.45;;;;;;;1.14;98.45;100845.16;10401381;28;20050;-79
2023/12/07 05:19:54;;;;;;;55.55;26.50;;;;;;;1.21;99.51;100836.97;10392568;28;20088;-78
2023/12/07 05:24:57;;;;;;;53.47;27.25;;;;;;;1.10;99.71;100835.59;10403751;28;20138;-78
2023/12/07 05:30:01;;;;;;;51.83;27.08;;;;;;;1.17;99.53;100848.56;10395855;28;20046;-78
2023/12/07 05:35:05;;;;;;;48.85;27.35;;;;;;;1.26;98.93;100852.66;10396047;28;20038;-78
2023/12/07 05:40:12;;;;;;;58.35;28.05;;;;;;;1.32;98.30;100847.19;10407654;28;20044;-79
2023/12/07 05:45:16;;;;;;;58.80;29.27;;;;;;;1.28;98.52;100850.84;10424600;28;20069;-79
2023/12/07 05:50:20;;;;;;;56.20;26.98;;;;;;;1.30;98.79;100842.84;10422123;28;20046;-79
2023/12/07 05:55:23;;;;;;;55.13;28.60;;;;;;;1.14;99.76;100845.16;10414902;28;20041;-78
2023/12/07 06:00:28;;;;;;;59.88;30.15;;;;;;;1.23;99.18;100844.84;10411632;28;20046;-78
2023/12/07 06:05:31;;;;;;;43.40;18.55;;;;;;;0.87;100.00;100860.19;10405234;28;20069;-78
2023/12/07 06:10:34;;;;;;;63.92;30.00;;;;;;;1.15;100.00;100865.41;10421485;28;20053;-78
2023/12/07 06:15:39;;;;;;;55.70;24.63;;;;;;;1.15;100.00;100870.69;10415008;28;20052;-78
2023/12/07 06:20:43;;;;;;;70.18;35.15;;;;;;;1.32;100.00;100860.41;10431874;28;20692;-78
2023/12/07 06:25:45;;;;;;;71.03;36.17;;;;;;;1.33;100.00;100871.88;10412358;28;20045;-79
2023/12/07 06:30:50;;;;;;;65.80;31.17;;;;;;;1.39;100.00;100853.97;10407997;28;20107;-78
2023/12/07 06:35:53;;;;;;;73.13;34.53;;;;;;;1.46;99.66;100855.50;10436024;28;20042;-78
2023/12/07 06:40:56;;;;;;;67.20;32.15;;;;;;;1.35;99.82;100864.75;10407226;28;20045;-79
2023/12/07 06:46:00;;;;;;;65.07;32.85;;;;;;;1.43;99.32;100862.69;10393862;28;20050;-79
2023/12/07 06:51:03;;;;;;;66.85;32.95;;;;;;;1.56;98.91;100876.34;10421818;28;20072;-79
2023/12/07 06:56:07;;;;;;;61.47;30.58;;;;;;;1.59;98.15;100879.75;10410549;28;20062;-79
2023/12/07 07:01:12;;;;;;;75.18;32.88;;;;;;;1.72;98.20;100888.09;10406226;28;20112;-78
2023/12/07 07:06:15;;;;;;;70.18;34.00;;;;;;;1.73;97.62;100890.72;10407756;28;20050;-79
2023/12/07 07:11:18;;;;;;;71.75;33.00;;;;;;;1.76;97.67;100881.78;10406882;28;20098;-79
2023/12/07 07:16:23;;;;;;;73.03;34.55;;;;;;;1.75;97.99;100893.28;10403584;28;20064;-79
2023/12/07 07:21:26;;;;;;;72.43;33.30;;;;;;;1.85;98.32;100893.84;10416455;28;20046;-79
2023/12/07 07:26:29;;;;;;;72.40;33.53;;;;;;;1.87;97.58;100903.44;10388479;28;20106;-79
2023/12/07 07:31:33;;;;;;;68.18;32.30;;;;;;;1.95;97.94;100903.19;10392964;28;20046;-79
2023/12/07 07:36:36;;;;;;;71.53;34.70;;;;;;;1.92;97.42;100905.91;10413614;28;20136;-78
2023/12/07 07:41:39;;;;;;;68.25;30.95;;;;;;;1.79;97.45;100908.16;10410328;28;20045;-78
2023/12/07 07:46:43;;;;;;;70.13;32.92;;;;;;;1.64;98.60;100900.75;10396512;28;20045;-79
2023/12/07 07:51:46;;;;;;;77.03;34.67;;;;;;;1.80;98.05;100904.59;10397482;28;20053;-79
2023/12/07 07:56:49;;;;;;;78.57;35.75;;;;;;;1.80;98.03;100912.53;10401510;28;20045;-78
2023/12/07 08:01:54;;;;;;;75.90;33.08;;;;;;;1.73;98.12;100897.81;10398376;28;20038;-78
2023/12/07 08:06:57;;;;;;;80.80;34.95;;;;;;;1.97;98.46;100895.16;10417323;28;20439;-78
2023/12/07 08:12:01;;;;;;;90.18;39.25;;;;;;;2.02;97.80;100898.50;10422485;28;20064;-78
2023/12/07 08:17:05;;;;;;;88.95;38.00;;;;;;;1.97;97.53;100885.41;10417195;28;20044;-78
2023/12/07 08:22:09;;;;;;;89.18;37.13;;;;;;;2.10;97.48;100902.59;10429056;28;20045;-78
2023/12/07 08:27:12;;;;;;;98.30;38.97;;;;;;;2.18;97.60;100902.31;10426294;28;20060;-78
2023/12/07 08:32:18;;;;;;;90.50;36.88;;;;;;;2.13;96.82;100907.78;10418775;28;20482;-78
2023/12/07 08:37:21;;;;;;;84.45;37.10;;;;;;;2.13;96.31;100918.38;10419124;28;20501;-78
2023/12/07 08:42:26;;;;;;;85.43;36.97;;;;;;;2.24;96.80;100910.03;10427323;28;20072;-78
2023/12/07 08:47:31;;;;;;;85.35;35.53;;;;;;;2.20;96.23;100919.03;10421350;28;20077;-79
2023/12/07 08:52:34;;;;;;;93.53;37.25;;;;;;;2.29;96.47;100923.97;10415611;28;20064;-78
2023/12/07 08:57:49;;;;;;;88.63;35.55;;;;;;;2.33;96.12;100912.34;10420816;28;20045;-78
2023/12/07 09:02:53;;;;;;;82.10;33.53;;;;;;;2.32;95.29;100931.81;10415380;28;20104;-78
2023/12/07 09:07:57;;;;;;;74.15;30.20;;;;;;;2.28;94.48;100932.84;10413619;28;20046;-79
2023/12/07 09:13:00;;;;;;;84.88;33.10;;;;;;;2.35;94.29;100930.81;10446141;28;20041;-79
2023/12/07 09:18:04;;;;;;;75.13;29.90;;;;;;;2.27;93.45;100925.81;10413286;28;20109;-78
2023/12/07 09:23:07;;;;;;;84.35;32.58;;;;;;;1.94;94.09;100931.44;10417536;28;20034;-78
2023/12/07 09:28:11;;;;;;;94.07;35.00;;;;;;;2.18;93.66;100924.38;10421363;28;20117;-78
2023/12/07 09:33:16;;;;;;;86.47;33.80;;;;;;;2.35;92.38;100922.88;10421733;28;20576;-78
2023/12/07 09:38:21;;;;;;;81.00;30.75;;;;;;;2.04;93.23;100918.72;10411048;28;20040;-79
2023/12/07 09:43:24;;;;;;;75.28;30.52;;;;;;;2.17;92.57;100927.09;10436077;28;20057;-79
2023/12/07 09:48:28;;;;;;;73.18;31.02;;;;;;;2.25;91.87;100927.69;10416783;28;20508;-80
2023/12/07 09:53:35;;;;;;;64.30;23.23;;;;;;;2.08;91.86;100940.66;10390155;28;20046;-78
2023/12/07 09:58:42;;;;;;;66.55;27.15;;;;;;;2.15;90.88;100937.75;10417909;28;20057;-79
2023/12/07 10:03:47;;;;;;;60.67;26.08;;;;;;;2.43;89.86;100934.06;10425304;28;20883;-79
2023/12/07 10:08:51;;;;;;;69.95;28.85;;;;;;;2.38;89.62;100933.34;10408408;28;20045;-78
2023/12/07 10:13:55;;;;;;;62.78;28.77;;;;;;;2.66;88.51;100927.91;10429664;28;20055;-78
2023/12/07 10:19:17;;;;;;;47.67;21.33;;;;;;;2.30;88.50;100933.63;10418772;28;20121;-78
2023/12/07 10:24:34;;;;;;;40.80;17.17;;;;;;;2.50;87.61;100919.63;10410189;28;20046;-79
2023/12/07 10:29:39;;;;;;;51.90;23.63;;;;;;;2.66;85.89;100914.63;10409148;28;20053;-79
2023/12/07 10:34:44;;;;;;;48.63;23.67;;;;;;;3.02;85.35;100904.31;10411397;28;20049;-79
2023/12/07 10:39:47;;;;;;;45.67;21.88;;;;;;;3.44;83.95;100899.91;10413209;28;20071;-79
2023/12/07 10:44:54;;;;;;;51.17;24.90;;;;;;;3.56;83.86;100898.50;10408584;28;20053;-79
2023/12/07 10:50:01;;;;;;;51.05;24.48;;;;;;;4.05;84.96;100891.00;10421733;28;20132;-79
2023/12/07 10:55:08;;;;;;;47.55;22.77;;;;;;;4.67;82.42;100881.00;10420364;28;20077;-80
2023/12/07 11:00:13;;;;;;;40.60;20.15;;;;;;;5.72;76.70;100866.81;10412416;28;20049;-79
2023/12/07 11:05:17;;;;;;;36.38;19.00;;;;;;;5.79;74.59;100854.00;10413835;28;20384;-78
2023/12/07 11:10:28;;;;;;;35.05;17.33;;;;;;;4.68;74.34;100858.75;10401767;28;20045;-80
2023/12/07 11:15:31;;;;;;;34.83;19.05;;;;;;;5.87;73.66;100859.78;10411339;28;20045;-80
2023/12/07 11:20:41;;;;;;;31.55;18.35;;;;;;;7.38;65.25;100836.09;10406571;28;20485;-79
2023/12/07 11:25:45;;;;;;;32.78;19.05;;;;;;;6.84;66.39;100836.56;10445794;28;20081;-78
2023/12/07 11:30:49;;;;;;;31.75;17.70;;;;;;;6.54;66.45;100825.84;10405752;28;20054;-78
2023/12/07 11:36:12;;;;;;;31.27;17.45;;;;;;;5.50;68.98;100833.28;10388740;28;20073;-77
2023/12/07 11:41:15;;;;;;;28.25;14.95;;;;;;;4.56;71.27;100838.94;10412997;28;20565;-78
2023/12/07 11:46:19;;;;;;;29.50;15.27;;;;;;;4.84;73.65;100825.13;10423750;28;20076;-78
2023/12/07 11:51:23;;;;;;;34.78;19.45;;;;;;;6.64;67.73;100816.38;10420225;28;20034;-78
2023/12/07 11:56:26;;;;;;;30.05;16.13;;;;;;;7.95;62.16;100814.69;10442935;28;20061;-79
2023/12/07 12:01:30;;;;;;;27.48;13.45;;;;;;;8.75;57.35;100815.78;10411234;28;20033;-78
2023/12/07 12:06:34;;;;;;;24.30;15.27;;;;;;;8.81;55.81;100818.06;10388922;28;20068;-77
2023/12/07 12:11:37;;;;;;;25.45;16.15;;;;;;;9.19;56.30;100795.84;10378776;28;20042;-77
2023/12/07 12:16:41;;;;;;;24.30;15.00;;;;;;;8.87;55.00;100799.84;10381892;28;20057;-77
2023/12/07 12:21:46;;;;;;;22.88;15.00;;;;;;;9.31;55.57;100785.22;10397554;28;20688;-78
2023/12/07 12:26:49;;;;;;;26.67;15.48;;;;;;;8.87;55.65;100783.78;10409357;28;20045;-77
2023/12/07 12:31:52;;;;;;;23.35;15.20;;;;;;;8.56;55.87;100765.28;10408617;28;20059;-78
2023/12/07 12:36:58;;;;;;;24.48;14.18;;;;;;;8.29;56.76;100761.72;10406066;28;20048;-78
2023/12/07 12:42:01;;;;;;;29.08;16.55;;;;;;;6.75;60.97;100767.69;10390428;28;20049;-77
2023/12/07 12:47:08;;;;;;;25.50;15.02;;;;;;;6.54;63.77;100773.31;10380306;28;20149;-77
2023/12/07 12:52:16;;;;;;;25.45;15.88;;;;;;;6.20;65.85;100774.41;10385880;28;20050;-78
2023/12/07 12:57:20;;;;;;;30.25;16.70;;;;;;;6.18;65.12;100760.28;10404043;28;20056;-78
2023/12/07 13:02:23;;;;;;;26.40;15.60;;;;;;;6.87;65.49;100750.94;10411595;28;20041;-77
2023/12/07 13:07:27;;;;;;;25.40;15.02;;;;;;;7.72;61.51;100749.28;10415028;28;20039;-77
2023/12/07 13:12:34;;;;;;;22.52;14.85;;;;;;;8.03;59.43;100742.84;10418141;28;20034;-77
2023/12/07 13:17:38;;;;;;;25.65;13.23;;;;;;;7.91;58.54;100722.25;10407145;28;20033;-76
2023/12/07 13:22:43;;;;;;;21.83;13.23;;;;;;;7.92;59.26;100713.25;10412971;28;20038;-77
2023/12/07 13:27:46;;;;;;;21.02;13.38;;;;;;;7.26;59.98;100712.94;10409496;28;20128;-77
2023/12/07 13:32:49;;;;;;;20.27;13.48;;;;;;;6.36;64.50;100692.53;10400348;28;20036;-77
2023/12/07 13:37:54;;;;;;;21.92;13.02;;;;;;;6.41;64.01;100694.91;10393509;28;20137;-80
2023/12/07 13:42:57;;;;;;;20.70;13.48;;;;;;;6.80;63.25;100696.16;10404513;28;20050;-79
2023/12/07 13:47:59;;;;;;;21.70;14.25;;;;;;;7.21;63.13;100684.78;10402921;28;20041;-79
2023/12/07 13:53:04;;;;;;;19.38;12.18;;;;;;;7.13;61.25;100676.38;10418636;28;20136;-78
2023/12/07 13:58:07;;;;;;;20.77;12.68;;;;;;;6.94;62.53;100676.66;10427862;28;20038;-79
2023/12/07 14:03:10;;;;;;;19.02;13.13;;;;;;;6.89;63.18;100673.44;10413336;28;20078;-79
2023/12/07 14:08:15;;;;;;;20.55;12.50;;;;;;;6.85;63.70;100675.38;10415564;28;20650;-79
2023/12/07 14:13:19;;;;;;;24.10;12.45;;;;;;;6.42;63.76;100671.75;10408003;28;20076;-79
2023/12/07 14:18:22;;;;;;;18.85;12.02;;;;;;;6.06;65.50;100680.94;10421527;28;20042;-78
2023/12/07 14:23:27;;;;;;;20.58;13.18;;;;;;;5.84;66.88;100676.84;10412756;28;20042;-79
2023/12/07 14:28:30;;;;;;;21.02;13.50;;;;;;;5.69;67.89;100670.56;10436104;28;20065;-79
2023/12/07 14:33:35;;;;;;;19.83;12.88;;;;;;;5.42;68.65;100664.13;10415793;28;20049;-78
2023/12/07 14:38:41;;;;;;;22.92;12.82;;;;;;;4.95;69.71;100670.19;10415309;28;20480;-78
2023/12/07 14:43:43;;;;;;;21.85;14.23;;;;;;;4.56;71.13;100673.97;10417896;28;20108;-79
2023/12/07 14:48:46;;;;;;;22.05;13.35;;;;;;;4.20;72.66;100669.59;10421148;28;20041;-77
2023/12/07 14:53:51;;;;;;;25.33;14.23;;;;;;;3.93;73.93;100667.34;10415979;28;20069;-78
2023/12/07 14:58:54;;;;;;;23.85;13.73;;;;;;;3.73;75.06;100678.09;10415227;28;20038;-79
2023/12/07 15:03:57;;;;;;;29.38;15.75;;;;;;;3.47;76.03;100669.53;10424984;28;20589;-78
2023/12/07 15:09:05;;;;;;;29.33;15.85;;;;;;;3.23;77.16;100681.31;10389416;28;20493;-78
2023/12/07 15:14:10;;;;;;;34.25;18.30;;;;;;;3.08;78.57;100677.56;10397100;28;20109;-78
2023/12/07 15:19:20;;;;;;;37.57;18.03;;;;;;;2.91;79.61;100691.59;10404246;28;20048;-77
2023/12/07 15:24:24;;;;;;;34.15;18.65;;;;;;;2.80;80.72;100688.56;10408751;28;20274;-78
2023/12/07 15:29:38;;;;;;;36.10;19.83;;;;;;;2.65;81.48;100687.41;10400317;28;20589;-79
2023/12/07 15:34:42;;;;;;;34.90;18.23;;;;;;;2.49;83.56;100667.75;10410659;28;20076;-79
2023/12/07 15:39:46;;;;;;;37.58;19.60;;;;;;;2.43;83.46;100649.47;10414844;28;20033;-79
2023/12/07 15:44:49;;;;;;;31.95;17.17;;;;;;;2.50;82.51;100635.88;10413293;28;20072;-79
2023/12/07 15:49:52;;;;;;;32.65;15.75;;;;;;;2.26;82.02;100632.47;10405748;28;20084;-79
2023/12/07 15:54:57;;;;;;;29.00;15.88;;;;;;;2.24;81.50;100621.06;10411262;28;20045;-78
2023/12/07 16:00:00;;;;;;;29.15;15.75;;;;;;;2.13;82.16;100610.91;10403657;28;20045;-79
2023/12/07 16:05:03;;;;;;;33.28;17.60;;;;;;;2.03;83.00;100614.03;10424136;28;20065;-78
2023/12/07 16:10:09;;;;;;;35.60;18.77;;;;;;;2.03;83.20;100616.66;10413284;28;20552;-79
2023/12/07 16:15:12;;;;;;;33.47;19.27;;;;;;;2.04;82.78;100618.41;10403145;28;20046;-79
2023/12/07 16:20:16;;;;;;;30.20;17.38;;;;;;;1.98;82.89;100613.38;10405982;28;20052;-78
2023/12/07 16:25:20;;;;;;;30.38;16.92;;;;;;;1.90;82.63;100608.41;10387491;28;20095;-79
2023/12/07 16:30:25;;;;;;;33.15;18.83;;;;;;;1.81;82.86;100599.03;10422927;28;20050;-79
2023/12/07 16:35:29;;;;;;;31.23;17.55;;;;;;;1.72;82.92;100580.84;10412471;28;20117;-80
2023/12/07 16:40:33;;;;;;;27.35;16.42;;;;;;;1.65;82.84;100588.22;10414796;28;20077;-79
2023/12/07 16:45:36;;;;;;;31.92;16.92;;;;;;;1.57;82.31;100595.59;10423869;28;20109;-79
2023/12/07 16:50:39;;;;;;;31.65;16.52;;;;;;;1.57;81.95;100598.25;10409583;28;20073;-79
2023/12/07 16:55:45;;;;;;;30.88;16.20;;;;;;;1.45;81.91;100590.78;10402890;28;20045;-79
2023/12/07 17:00:48;;;;;;;35.28;18.45;;;;;;;1.12;83.02;100585.03;10409978;28;20050;-79
2023/12/07 17:05:51;;;;;;;30.63;16.65;;;;;;;1.22;81.97;100570.53;10415961;28;20053;-79
2023/12/07 17:10:55;;;;;;;31.08;17.85;;;;;;;0.99;82.39;100553.78;10409000;28;20038;-79
2023/12/07 17:15:58;;;;;;;29.83;17.70;;;;;;;1.00;82.04;100541.41;10412688;28;20056;-79
2023/12/07 17:21:03;;;;;;;32.65;17.23;;;;;;;0.95;81.72;100546.00;10415551;28;20420;-78
2023/12/07 17:26:08;;;;;;;30.27;15.05;;;;;;;0.93;81.37;100540.75;10404794;28;20069;-78
2023/12/07 17:31:11;;;;;;;26.63;16.00;;;;;;;0.70;81.81;100543.44;10417132;28;20050;-79
2023/12/07 17:36:15;;;;;;;36.58;17.90;;;;;;;0.82;81.78;100532.38;10399246;28;20046;-78
2023/12/07 17:41:20;;;;;;;28.92;15.63;;;;;;;0.72;81.87;100528.38;10420526;28;20050;-78
2023/12/07 17:46:23;;;;;;;29.95;16.65;;;;;;;0.52;82.78;100534.38;10418923;28;20077;-78
2023/12/07 17:51:27;;;;;;;25.85;14.95;;;;;;;0.62;82.06;100527.84;10415278;28;20073;-78
2023/12/07 17:56:31;;;;;;;23.88;12.35;;;;;;;0.70;81.70;100538.16;10435956;28;20483;-79
2023/12/07 18:01:35;;;;;;;31.67;14.88;;;;;;;0.63;81.59;100528.72;10422641;28;20103;-78
2023/12/07 18:06:38;;;;;;;28.88;15.25;;;;;;;0.61;82.14;100529.63;10429028;28;20300;-78
2023/12/07 18:11:44;;;;;;;21.20;11.90;;;;;;;0.57;81.77;100519.22;10434331;28;20061;-79
2023/12/07 18:16:47;;;;;;;26.52;14.98;;;;;;;0.55;82.24;100521.94;10412512;28;20045;-79
2023/12/07 18:21:50;;;;;;;32.55;16.23;;;;;;;0.61;82.24;100507.63;10425233;28;20068;-79
2023/12/07 18:26:54;;;;;;;29.42;14.85;;;;;;;0.52;82.00;100516.78;10421866;28;20041;-79
2023/12/07 18:31:57;;;;;;;29.55;15.95;;;;;;;0.56;81.80;100504.28;10422998;28;20401;-79
2023/12/07 18:37:02;;;;;;;31.00;16.77;;;;;;;0.52;81.80;100500.91;10413765;28;20680;-80
2023/12/07 18:42:08;;;;;;;30.30;16.63;;;;;;;0.48;82.29;100496.66;10408341;28;20037;-80
2023/12/07 18:47:11;;;;;;;33.85;18.35;;;;;;;0.48;82.38;100490.50;10406348;28;20512;-81
2023/12/07 18:52:14;;;;;;;29.13;16.42;;;;;;;0.39;82.60;100478.50;10403256;28;20042;-78
2023/12/07 18:57:18;;;;;;;32.78;16.02;;;;;;;0.34;83.13;100475.16;10408185;28;20101;-81
2023/12/07 19:02:21;;;;;;;31.92;16.10;;;;;;;0.36;82.93;100479.47;10409103;28;20730;-80
2023/12/07 19:07:24;;;;;;;28.35;16.55;;;;;;;0.26;83.13;100464.00;10409491;28;20061;-80
2023/12/07 19:12:29;;;;;;;28.85;16.05;;;;;;;0.28;83.28;100462.19;10408632;28;20045;-79
2023/12/07 19:17:32;;;;;;;32.97;17.35;;;;;;;0.18;84.18;100461.66;10389242;28;20117;-80
2023/12/07 19:22:35;;;;;;;31.98;18.10;;;;;;;0.30;83.93;100474.41;10391053;28;20045;-79
2023/12/07 19:27:40;;;;;;;33.00;16.92;;;;;;;0.37;83.21;100465.31;10405153;28;20072;-79
2023/12/07 19:32:42;;;;;;;30.98;16.55;;;;;;;0.37;83.19;100472.41;10397958;28;20090;-80
2023/12/07 19:37:46;;;;;;;35.72;18.60;;;;;;;0.30;83.59;100471.78;10401182;28;20045;-79
2023/12/07 19:42:50;;;;;;;33.50;16.80;;;;;;;0.34;83.28;100469.88;10402343;28;20124;-79
2023/12/07 19:47:53;;;;;;;32.92;17.15;;;;;;;0.32;83.46;100446.13;10420706;28;20388;-80
2023/12/07 19:52:56;;;;;;;31.70;17.48;;;;;;;0.26;84.20;100438.44;10402837;28;20117;-77
2023/12/07 19:58:02;;;;;;;37.40;19.35;;;;;;;0.32;84.14;100443.50;10384726;28;20069;-79
2023/12/07 20:03:07;;;;;;;37.60;18.75;;;;;;;0.24;84.44;100426.22;10401841;28;20042;-81
2023/12/07 20:08:11;;;;;;;35.10;19.08;;;;;;;0.20;85.13;100425.47;10399581;28;20046;-80
2023/12/07 20:13:15;;;;;;;40.58;19.75;;;;;;;0.29;85.02;100418.97;10404562;28;20034;-79
2023/12/07 20:18:19;;;;;;;36.53;18.45;;;;;;;0.06;85.70;100410.13;10405365;28;20042;-82
2023/12/07 20:23:22;;;;;;;37.65;19.85;;;;;;;0.12;85.74;100399.34;10405802;28;20069;-81
2023/12/07 20:28:27;;;;;;;40.03;20.10;;;;;;;0.01;86.27;100388.31;10379160;28;20048;-81
2023/12/07 20:33:30;;;;;;;33.17;18.77;;;;;;;-0.00;86.59;100383.06;10386939;28;20046;-78
2023/12/07 20:38:33;;;;;;;38.95;19.48;;;;;;;0.01;86.11;100363.69;10412827;28;20681;-81
2023/12/07 20:43:37;;;;;;;38.15;19.40;;;;;;;0.17;85.14;100351.63;10402265;28;20057;-78
2023/12/07 20:48:40;;;;;;;40.22;22.80;;;;;;;0.05;86.03;100338.88;10415860;28;21218;-79
2023/12/07 20:53:43;;;;;;;40.08;21.80;;;;;;;-0.01;85.81;100326.75;10419639;28;20056;-80
2023/12/07 20:58:47;;;;;;;42.33;20.42;;;;;;;0.08;85.37;100321.13;10416615;28;20053;-81
2023/12/07 21:03:51;;;;;;;37.92;19.02;;;;;;;0.04;85.46;100308.97;10422589;28;20042;-82
2023/12/07 21:08:55;;;;;;;42.17;20.90;;;;;;;-0.07;85.62;100319.06;10425190;28;20046;-81
2023/12/07 21:13:59;;;;;;;34.33;18.17;;;;;;;0.14;84.77;100314.75;10410265;28;20042;-81
2023/12/07 21:19:04;;;;;;;37.22;19.02;;;;;;;0.01;85.32;100302.94;10419453;28;20038;-81
2023/12/07 21:24:07;;;;;;;35.88;18.25;;;;;;;-0.06;84.72;100289.09;10399576;28;20045;-79
2023/12/07 21:29:12;;;;;;;40.15;19.85;;;;;;;-0.23;86.31;100273.91;10396257;28;20109;-79
2023/12/07 21:34:14;;;;;;;34.10;18.75;;;;;;;-0.18;86.20;100258.75;10423853;28;20063;-79
2023/12/07 21:39:18;;;;;;;39.45;18.05;;;;;;;-0.20;85.88;100244.75;10418137;28;20568;-82
2023/12/07 21:44:22;;;;;;;32.38;18.02;;;;;;;-0.20;85.77;100243.88;10412611;28;20122;-81
2023/12/07 21:49:25;;;;;;;33.38;17.40;;;;;;;-0.04;85.11;100246.78;10408220;28;20051;-80
2023/12/07 21:54:28;;;;;;;36.08;18.38;;;;;;;-0.09;85.17;100231.13;10432761;28;20046;-81
2023/12/07 21:59:33;;;;;;;37.80;17.77;;;;;;;-0.22;85.22;100198.19;10416717;28;20137;-81
2023/12/07 22:04:36;;;;;;;40.10;19.33;;;;;;;-0.17;86.01;100196.25;10420032;28;20448;-81
2023/12/07 22:09:39;;;;;;;39.22;19.38;;;;;;;-0.27;85.90;100182.56;10418694;28;20041;-79
2023/12/07 22:14:43;;;;;;;35.60;19.48;;;;;;;-0.21;85.34;100171.75;10416660;28;20030;-81
2023/12/07 22:19:50;;;;;;;35.80;19.40;;;;;;;-0.34;85.43;100157.31;10409193;28;20057;-82
2023/12/07 22:24:53;;;;;;;34.00;17.60;;;;;;;-0.10;84.25;100177.44;10407280;28;20113;-80
2023/12/07 22:29:58;;;;;;;34.30;16.60;;;;;;;0.15;82.84;100181.75;10406456;28;20100;-81
2023/12/07 22:35:01;;;;;;;36.22;18.30;;;;;;;-0.15;83.06;100174.13;10400351;28;20045;-80
2023/12/07 22:40:05;;;;;;;39.08;18.63;;;;;;;0.04;82.17;100182.19;10414279;28;20053;-80
2023/12/07 22:45:10;;;;;;;30.85;16.23;;;;;;;0.05;82.02;100181.25;10420910;28;20540;-80
2023/12/07 22:50:13;;;;;;;32.30;17.83;;;;;;;0.05;81.73;100181.25;10401510;28;20053;-81
2023/12/07 22:55:18;;;;;;;30.50;17.25;;;;;;;0.05;81.85;100185.69;10404195;28;20058;-79